createdAt,value
2019-05-21T05:29:02.975Z,96846.09
2019-05-21T05:34:03.960Z,96850.95
2019-05-21T05:39:05.840Z,96859.16
2019-05-21T05:44:06.832Z,96856.33
2019-05-21T05:49:18.882Z,96859.16
2019-05-21T05:54:19.770Z,96861.19
2019-05-21T05:59:20.644Z,96863.53
2019-05-21T06:04:21.521Z,96862.86
2019-05-21T06:09:28.947Z,96863.19
2019-05-21T06:14:30.028Z,96869.21
2019-05-21T06:19:30.934Z,96865.52
2019-05-21T06:24:31.804Z,96868.87
2019-05-21T06:29:32.677Z,96878.36
2019-05-21T06:34:33.587Z,96876.33
2019-05-21T06:39:34.771Z,96883.55
2019-05-21T06:44:35.676Z,96890.28
2019-05-21T06:49:36.661Z,96888.94
2019-05-21T06:54:37.531Z,96900.34
2019-05-21T06:59:38.655Z,96905.02
2019-05-21T07:04:39.520Z,96914.39
2019-05-21T07:09:40.415Z,96916.74
2019-05-21T07:14:41.293Z,96927.13
2019-05-21T07:19:42.297Z,96922.73
2019-05-21T07:24:43.172Z,96935.16
2019-05-21T07:29:44.068Z,96940.22
2019-05-21T07:34:44.940Z,96948.58
2019-05-21T07:39:45.827Z,96960.00
2019-05-21T07:44:46.732Z,96959.32
2019-05-21T07:49:47.610Z,96968.42
2019-05-21T07:54:48.507Z,96968.09
2019-05-21T07:59:49.754Z,96959.37
2019-05-21T08:04:50.640Z,96963.38
2019-05-21T08:09:51.516Z,96969.41
2019-05-21T08:14:52.396Z,96975.44
2019-05-21T08:19:53.274Z,96982.86
2019-05-21T08:24:54.140Z,96988.03
2019-05-21T08:29:55.015Z,96992.69
2019-05-21T08:34:55.900Z,97009.44
2019-05-21T08:39:56.766Z,97017.34
2019-05-21T08:44:57.754Z,97020.03
2019-05-21T08:49:58.670Z,97020.51
2019-05-21T08:54:59.545Z,97040.03
2019-05-21T09:00:00.549Z,97046.54
2019-05-21T09:05:01.528Z,97053.31
2019-05-21T09:10:04.689Z,97062.38
2019-05-21T09:15:05.763Z,97060.68
2019-05-21T09:20:08.245Z,97073.10
2019-05-21T09:25:09.550Z,97073.79
2019-05-21T09:30:11.014Z,97076.97
2019-05-21T09:35:12.353Z,97087.22
2019-05-21T09:40:14.852Z,97102.33
2019-05-21T09:45:15.843Z,97103.67
2019-05-21T09:50:17.644Z,97112.05
2019-05-21T09:55:18.496Z,97123.83
2019-05-21T10:00:33.477Z,97130.52
2019-05-21T10:05:34.554Z,97134.23
2019-05-21T10:10:35.419Z,97137.41
2019-05-21T10:15:36.395Z,97134.55
2019-05-21T10:20:37.287Z,97150.00
2019-05-21T10:25:38.210Z,97162.92
2019-05-21T10:30:39.165Z,97162.44
2019-05-21T10:35:41.012Z,97172.01
2019-05-21T10:40:44.036Z,97181.90
2019-05-21T10:45:45.104Z,97178.89
2019-05-21T10:50:45.982Z,97185.93
2019-05-21T10:55:47.067Z,97190.13
2019-05-21T11:00:49.987Z,97186.27
2019-05-21T11:06:09.543Z,97188.95
2019-05-21T11:11:00.432Z,97191.61
2019-05-21T11:16:01.325Z,97206.06
2019-05-21T11:21:02.196Z,97209.09
2019-05-21T11:26:03.306Z,97214.66
2019-05-21T11:31:04.291Z,97220.17
2019-05-21T11:36:05.365Z,97228.76
2019-05-21T11:41:06.282Z,97227.26
2019-05-21T11:46:07.244Z,97229.25
2019-05-21T11:51:08.121Z,97249.44
2019-05-21T11:56:08.995Z,97247.58
2019-05-21T12:01:10.195Z,97250.08
2019-05-21T12:06:11.180Z,97262.17
2019-05-21T12:11:12.079Z,97268.93
2019-05-21T12:16:12.940Z,97262.38
2019-05-21T12:21:13.807Z,97273.63
2019-05-21T12:26:14.891Z,97278.33
2019-05-21T12:31:15.765Z,97279.34
2019-05-21T12:36:16.758Z,97289.09
2019-05-21T12:41:17.749Z,97290.45
2019-05-21T12:46:18.747Z,97291.77
2019-05-21T12:51:19.615Z,97301.19
2019-05-21T12:56:20.482Z,97305.91
2019-05-21T13:01:21.349Z,97306.92
2019-05-21T13:06:22.360Z,97316.33
2019-05-21T13:11:23.696Z,97321.03
2019-05-21T13:16:24.582Z,97314.97
2019-05-21T13:21:25.553Z,97332.45
2019-05-21T13:26:26.634Z,97329.11
2019-05-21T13:31:27.578Z,97336.49
2019-05-21T13:36:28.562Z,97336.84
2019-05-21T13:41:29.436Z,97350.61
2019-05-21T13:46:30.326Z,97351.80
2019-05-21T13:51:31.515Z,97347.94
2019-05-21T13:56:32.379Z,97348.11
2019-05-21T14:01:40.634Z,97356.00
2019-05-21T14:06:36.307Z,97346.55
2019-05-21T14:11:40.115Z,97352.59
2019-05-21T14:16:41.191Z,97348.23
2019-05-21T14:21:42.378Z,97358.00
2019-05-21T14:26:43.335Z,97354.30
2019-05-21T14:31:44.227Z,97358.00
2019-05-21T14:36:45.117Z,97368.41
2019-05-21T14:41:45.973Z,97369.58
2019-05-21T14:46:46.848Z,97367.73
2019-05-21T14:51:47.736Z,97366.89
2019-05-21T14:56:48.714Z,97369.39
2019-05-21T15:01:49.592Z,97374.77
2019-05-21T15:06:50.615Z,97371.09
2019-05-21T15:11:51.549Z,97365.04
2019-05-21T15:16:52.436Z,97357.30
2019-05-21T15:21:55.207Z,97355.94
2019-05-21T15:26:56.081Z,97366.34
2019-05-21T15:31:56.969Z,97359.31
2019-05-21T15:36:57.832Z,97363.50
2019-05-21T15:41:58.708Z,97366.38
2019-05-21T15:46:59.597Z,97371.58
2019-05-21T15:52:00.489Z,97373.94
2019-05-21T15:57:01.393Z,97378.66
2019-05-21T16:02:03.061Z,97385.39
2019-05-21T16:07:04.135Z,97385.20
2019-05-21T16:12:05.020Z,97388.24
2019-05-21T16:17:05.902Z,97389.89
2019-05-21T16:22:06.791Z,97396.30
2019-05-21T16:27:07.760Z,97403.91
2019-05-21T16:32:08.665Z,97406.08
2019-05-21T16:37:09.644Z,97412.47
2019-05-21T16:42:10.731Z,97410.45
2019-05-21T16:47:11.602Z,97412.48
2019-05-21T16:52:12.653Z,97408.77
2019-05-21T16:57:13.528Z,97417.19
2019-05-21T17:02:14.410Z,97427.12
2019-05-21T17:07:15.285Z,97424.92
2019-05-21T17:12:16.282Z,97436.36
2019-05-21T17:17:17.189Z,97434.00
2019-05-21T17:22:18.253Z,97436.36
2019-05-21T17:27:19.101Z,97431.64
2019-05-21T17:32:20.085Z,97444.92
2019-05-21T17:37:21.164Z,97436.36
2019-05-21T17:42:22.051Z,97449.12
2019-05-21T17:47:23.146Z,97447.77
2019-05-21T17:52:24.124Z,97450.45
2019-05-21T17:57:25.310Z,97453.43
2019-05-21T18:02:28.186Z,97455.47
2019-05-21T18:07:29.861Z,97446.50
2019-05-21T18:12:32.327Z,97456.58
2019-05-21T18:17:34.014Z,97460.42
2019-05-21T18:22:36.504Z,97466.47
2019-05-21T18:27:38.136Z,97465.13
2019-05-21T18:32:39.021Z,97470.14
2019-05-21T18:37:39.907Z,97487.91
2019-05-21T18:42:40.876Z,97474.98
2019-05-21T18:47:41.896Z,97479.66
2019-05-21T18:52:42.888Z,97487.52
2019-05-21T18:57:43.955Z,97496.25
2019-05-21T19:02:45.035Z,97504.14
2019-05-21T19:07:46.016Z,97513.91
2019-05-21T19:12:47.007Z,97520.97
2019-05-21T19:17:48.218Z,97525.34
2019-05-21T19:22:49.185Z,97531.85
2019-05-21T19:27:50.080Z,97539.06
2019-05-21T19:32:51.073Z,97544.95
2019-05-21T19:37:51.965Z,97542.89
2019-05-21T19:42:55.367Z,97554.30
2019-05-21T19:47:55.735Z,97559.31
2019-05-21T19:52:56.632Z,97561.31
2019-05-21T19:57:57.503Z,97563.67
2019-05-21T20:02:58.721Z,97558.63
2019-05-21T20:07:59.607Z,97558.62
2019-05-21T20:13:00.745Z,97561.66
2019-05-21T20:18:07.520Z,97532.02
